sensor_id;sensor_type;location;lat;lon;timestamp;temperature;humidity
72919;SHT30;61063;55.700;26.994;2022-11-21T00:04:17;-3.1;82.3
72919;SHT30;61063;55.700;26.994;2022-11-21T00:09:29;-3.2;82.2
72919;SHT30;61063;55.700;26.994;2022-11-21T00:14:17;-3.1;82.7
72919;SHT30;61063;55.700;26.994;2022-11-21T00:19:41;-3.1;82.7
72919;SHT30;61063;55.700;26.994;2022-11-21T00:24:25;-3.1;82.4
72919;SHT30;61063;55.700;26.994;2022-11-21T00:29:49;-3.1;82.5
72919;SHT30;61063;55.700;26.994;2022-11-21T00:34:29;-3.2;82.4
72919;SHT30;61063;55.700;26.994;2022-11-21T00:39:25;-3.2;82.4
72919;SHT30;61063;55.700;26.994;2022-11-21T00:44:21;-3.2;81.9
72919;SHT30;61063;55.700;26.994;2022-11-21T00:49:37;-3.3;81.9
72919;SHT30;61063;55.700;26.994;2022-11-21T00:54:11;-3.3;82.6
72919;SHT30;61063;55.700;26.994;2022-11-21T00:59:33;-3.3;82.3
72919;SHT30;61063;55.700;26.994;2022-11-21T01:04:19;-3.3;82.1
72919;SHT30;61063;55.700;26.994;2022-11-21T01:09:49;-3.3;81.9
72919;SHT30;61063;55.700;26.994;2022-11-21T01:14:49;-3.3;82
72919;SHT30;61063;55.700;26.994;2022-11-21T01:19:37;-3.4;81.8
72919;SHT30;61063;55.700;26.994;2022-11-21T01:24:37;-3.5;81.8
72919;SHT30;61063;55.700;26.994;2022-11-21T01:29:53;-3.5;82.3
72919;SHT30;61063;55.700;26.994;2022-11-21T01:34:53;-3.5;82.4
72919;SHT30;61063;55.700;26.994;2022-11-21T01:39:27;-3.5;82.2
72919;SHT30;61063;55.700;26.994;2022-11-21T01:44:53;-3.5;81.9
72919;SHT30;61063;55.700;26.994;2022-11-21T01:49:19;-3.5;82
72919;SHT30;61063;55.700;26.994;2022-11-21T01:54:20;-3.6;82
72919;SHT30;61063;55.700;26.994;2022-11-21T01:59:30;-3.6;82.3
72919;SHT30;61063;55.700;26.994;2022-11-21T02:04:41;-3.6;82.2
72919;SHT30;61063;55.700;26.994;2022-11-21T02:09:17;-3.6;82.3
72919;SHT30;61063;55.700;26.994;2022-11-21T02:14:39;-3.5;82.7
72919;SHT30;61063;55.700;26.994;2022-11-21T02:19:27;-3.6;82.3
72919;SHT30;61063;55.700;26.994;2022-11-21T02:24:41;-3.6;83
72919;SHT30;61063;55.700;26.994;2022-11-21T02:29:39;-3.6;82.7
72919;SHT30;61063;55.700;26.994;2022-11-21T02:34:39;-3.6;82.5
72919;SHT30;61063;55.700;26.994;2022-11-21T02:39:29;-3.7;82.5
72919;SHT30;61063;55.700;26.994;2022-11-21T02:44:19;-3.8;82.2
72919;SHT30;61063;55.700;26.994;2022-11-21T02:49:41;-3.7;82.8
72919;SHT30;61063;55.700;26.994;2022-11-21T02:54:39;-3.6;82.4
72919;SHT30;61063;55.700;26.994;2022-11-21T02:59:27;-3.7;82
72919;SHT30;61063;55.700;26.994;2022-11-21T03:04:51;-3.6;82.5
72919;SHT30;61063;55.700;26.994;2022-11-21T03:09:31;-3.6;82.2
72919;SHT30;61063;55.700;26.994;2022-11-21T03:14:41;-3.6;81.9
72919;SHT30;61063;55.700;26.994;2022-11-21T03:19:27;-3.7;81.8
72919;SHT30;61063;55.700;26.994;2022-11-21T03:24:11;-3.7;82.1
72919;SHT30;61063;55.700;26.994;2022-11-21T03:29:51;-3.6;82.1
72919;SHT30;61063;55.700;26.994;2022-11-21T03:34:19;-3.6;82
72919;SHT30;61063;55.700;26.994;2022-11-21T03:39:39;-3.5;82
72919;SHT30;61063;55.700;26.994;2022-11-21T03:44:41;-3.5;82
72919;SHT30;61063;55.700;26.994;2022-11-21T03:49:39;-3.5;81.8
72919;SHT30;61063;55.700;26.994;2022-11-21T03:54:27;-3.5;81.9
72919;SHT30;61063;55.700;26.994;2022-11-21T03:59:19;-3.5;81.5
72919;SHT30;61063;55.700;26.994;2022-11-21T04:04:42;-3.4;81.5
72919;SHT30;61063;55.700;26.994;2022-11-21T04:09:37;-3.4;81.1
72919;SHT30;61063;55.700;26.994;2022-11-21T04:14:17;-3.5;81.1
72919;SHT30;61063;55.700;26.994;2022-11-21T04:19:43;-3.5;81.5
72919;SHT30;61063;55.700;26.994;2022-11-21T04:24:19;-3.4;81.9
72919;SHT30;61063;55.700;26.994;2022-11-21T04:29:51;-3.5;81.8
72919;SHT30;61063;55.700;26.994;2022-11-21T04:34:29;-3.4;81.6
72919;SHT30;61063;55.700;26.994;2022-11-21T04:39:51;-3.4;81.9
72919;SHT30;61063;55.700;26.994;2022-11-21T04:44:51;-3.4;81.9
72919;SHT30;61063;55.700;26.994;2022-11-21T04:49:19;-3.3;81.8
72919;SHT30;61063;55.700;26.994;2022-11-21T04:54:29;-3.4;81.5
72919;SHT30;61063;55.700;26.994;2022-11-21T04:59:39;-3.4;81.5
72919;SHT30;61063;55.700;26.994;2022-11-21T05:04:37;-3.5;81.7
72919;SHT30;61063;55.700;26.994;2022-11-21T05:09:47;-3.5;82.1
72919;SHT30;61063;55.700;26.994;2022-11-21T05:14:15;-3.6;81.6
72919;SHT30;61063;55.700;26.994;2022-11-21T05:19:27;-3.7;81.2
72919;SHT30;61063;55.700;26.994;2022-11-21T05:24:49;-3.7;81.9
72919;SHT30;61063;55.700;26.994;2022-11-21T05:29:25;-3.6;81.9
72919;SHT30;61063;55.700;26.994;2022-11-21T05:34:49;-3.6;81.6
72919;SHT30;61063;55.700;26.994;2022-11-21T05:39:17;-3.6;81.4
72919;SHT30;61063;55.700;26.994;2022-11-21T05:44:39;-3.6;80.9
72919;SHT30;61063;55.700;26.994;2022-11-21T05:49:49;-3.6;80.9
72919;SHT30;61063;55.700;26.994;2022-11-21T05:54:49;-3.6;81.1
72919;SHT30;61063;55.700;26.994;2022-11-21T05:59:47;-3.6;80.9
72919;SHT30;61063;55.700;26.994;2022-11-21T06:04:47;-3.7;80.6
72919;SHT30;61063;55.700;26.994;2022-11-21T06:09:37;-3.6;80.8
72919;SHT30;61063;55.700;26.994;2022-11-21T06:14:49;-3.7;80.1
72919;SHT30;61063;55.700;26.994;2022-11-21T06:19:37;-3.7;80.8
72919;SHT30;61063;55.700;26.994;2022-11-21T06:24:25;-3.7;80.7
72919;SHT30;61063;55.700;26.994;2022-11-21T06:29:17;-3.7;80.8
72919;SHT30;61063;55.700;26.994;2022-11-21T06:34:17;-3.6;81.1
72919;SHT30;61063;55.700;26.994;2022-11-21T06:39:49;-3.6;81.2
72919;SHT30;61063;55.700;26.994;2022-11-21T06:44:49;-3.5;81.2
72919;SHT30;61063;55.700;26.994;2022-11-21T06:49:49;-3.5;80.9
72919;SHT30;61063;55.700;26.994;2022-11-21T06:54:17;-3.5;81
72919;SHT30;61063;55.700;26.994;2022-11-21T06:59:17;-3.5;81.2
72919;SHT30;61063;55.700;26.994;2022-11-21T07:04:27;-3.4;81.4
72919;SHT30;61063;55.700;26.994;2022-11-21T07:09:49;-3.4;81.6
72919;SHT30;61063;55.700;26.994;2022-11-21T07:14:49;-3.3;81.8
72919;SHT30;61063;55.700;26.994;2022-11-21T07:19:19;-3.2;81.4
72919;SHT30;61063;55.700;26.994;2022-11-21T07:24:39;-3.2;81
72919;SHT30;61063;55.700;26.994;2022-11-21T07:29:41;-3.1;81
72919;SHT30;61063;55.700;26.994;2022-11-21T07:34:37;-3.2;80.2
72919;SHT30;61063;55.700;26.994;2022-11-21T07:39:29;-3.1;80.5
72919;SHT30;61063;55.700;26.994;2022-11-21T07:44:51;-3;80.5
72919;SHT30;61063;55.700;26.994;2022-11-21T07:49:19;-3;80.5
72919;SHT30;61063;55.700;26.994;2022-11-21T07:54:51;-2.8;80.5
72919;SHT30;61063;55.700;26.994;2022-11-21T07:59:27;-2.8;80.8
72919;SHT30;61063;55.700;26.994;2022-11-21T08:04:51;-2.7;80.8
72919;SHT30;61063;55.700;26.994;2022-11-21T08:09:21;-2.5;80.4
72919;SHT30;61063;55.700;26.994;2022-11-21T08:14:53;-2.4;80.7
72919;SHT30;61063;55.700;26.994;2022-11-21T08:19:51;-2.3;80.8
72919;SHT30;61063;55.700;26.994;2022-11-21T08:24:39;-2.4;80
72919;SHT30;61063;55.700;26.994;2022-11-21T08:29:41;-2.4;80.3
72919;SHT30;61063;55.700;26.994;2022-11-21T08:34:29;-2.4;79.6
72919;SHT30;61063;55.700;26.994;2022-11-21T08:39:19;-2.4;80
72919;SHT30;61063;55.700;26.994;2022-11-21T08:44:41;-2.3;80.3
72919;SHT30;61063;55.700;26.994;2022-11-21T08:49:41;-2.2;80
72919;SHT30;61063;55.700;26.994;2022-11-21T08:54:29;-2;79.7
72919;SHT30;61063;55.700;26.994;2022-11-21T08:59:51;-1.9;79.3
72919;SHT30;61063;55.700;26.994;2022-11-21T09:04:19;-1.9;79
72919;SHT30;61063;55.700;26.994;2022-11-21T09:09:53;-1.8;79.1
72919;SHT30;61063;55.700;26.994;2022-11-21T09:14:41;-1.7;78.8
72919;SHT30;61063;55.700;26.994;2022-11-21T09:19:53;-1.6;78.5
72919;SHT30;61063;55.700;26.994;2022-11-21T09:24:51;-1.6;78.6
72919;SHT30;61063;55.700;26.994;2022-11-21T09:29:51;-1.5;78.5
72919;SHT30;61063;55.700;26.994;2022-11-21T09:34:29;-1.6;78.7
72919;SHT30;61063;55.700;26.994;2022-11-21T09:39:37;-1.6;78.9
72919;SHT30;61063;55.700;26.994;2022-11-21T09:44:56;-1.6;78.9
72919;SHT30;61063;55.700;26.994;2022-11-21T09:49:52;-1.6;78.9
72919;SHT30;61063;55.700;26.994;2022-11-21T09:54:52;-1.6;78
72919;SHT30;61063;55.700;26.994;2022-11-21T09:59:43;-1.8;78.5
72919;SHT30;61063;55.700;26.994;2022-11-21T10:04:41;-1.7;78.6
72919;SHT30;61063;55.700;26.994;2022-11-21T10:09:46;-1.7;78.2
72919;SHT30;61063;55.700;26.994;2022-11-21T10:14:33;-1.8;77.9
72919;SHT30;61063;55.700;26.994;2022-11-21T10:19:58;-1.9;77.8
72919;SHT30;61063;55.700;26.994;2022-11-21T10:24:54;-1.9;77.5
72919;SHT30;61063;55.700;26.994;2022-11-21T10:29:08;-1.8;77.7
72919;SHT30;61063;55.700;26.994;2022-11-21T10:34:54;-1.7;77.7
72919;SHT30;61063;55.700;26.994;2022-11-21T10:39:22;-1.6;77.7
72919;SHT30;61063;55.700;26.994;2022-11-21T10:44:23;-1.4;77.9
72919;SHT30;61063;55.700;26.994;2022-11-21T10:49:09;-1.1;77.5
72919;SHT30;61063;55.700;26.994;2022-11-21T10:55:00;-1;77.4
72919;SHT30;61063;55.700;26.994;2022-11-21T10:59:41;-0.9;77.1
72919;SHT30;61063;55.700;26.994;2022-11-21T11:05:13;-0.9;77
72919;SHT30;61063;55.700;26.994;2022-11-21T11:09:12;-0.7;76.7
72919;SHT30;61063;55.700;26.994;2022-11-21T11:14:51;-0.8;76.7
72919;SHT30;61063;55.700;26.994;2022-11-21T11:19:41;-0.6;76.8
72919;SHT30;61063;55.700;26.994;2022-11-21T11:24:29;-0.6;76.2
72919;SHT30;61063;55.700;26.994;2022-11-21T11:29:31;-0.6;75.7
72919;SHT30;61063;55.700;26.994;2022-11-21T11:34:21;-0.6;76
72919;SHT30;61063;55.700;26.994;2022-11-21T11:39:54;-0.7;76
72919;SHT30;61063;55.700;26.994;2022-11-21T11:44:32;-0.6;76
72919;SHT30;61063;55.700;26.994;2022-11-21T11:49:54;-0.6;76.2
72919;SHT30;61063;55.700;26.994;2022-11-21T11:54:44;-0.6;76.7
72919;SHT30;61063;55.700;26.994;2022-11-21T11:59:25;-0.6;76.1
72919;SHT30;61063;55.700;26.994;2022-11-21T12:04:36;-0.6;76.2
72919;SHT30;61063;55.700;26.994;2022-11-21T12:09:43;-0.8;76.3
72919;SHT30;61063;55.700;26.994;2022-11-21T12:14:46;-1;77.2
72919;SHT30;61063;55.700;26.994;2022-11-21T12:19:53;-1.2;77.7
72919;SHT30;61063;55.700;26.994;2022-11-21T12:24:21;-1.2;78.7
72919;SHT30;61063;55.700;26.994;2022-11-21T12:29:55;-1.3;78.6
72919;SHT30;61063;55.700;26.994;2022-11-21T12:34:47;-1.3;79
72919;SHT30;61063;55.700;26.994;2022-11-21T12:39:43;-1.3;79.8
72919;SHT30;61063;55.700;26.994;2022-11-21T12:44:56;-1.3;79.9
72919;SHT30;61063;55.700;26.994;2022-11-21T12:49:26;-1.3;79.8
72919;SHT30;61063;55.700;26.994;2022-11-21T12:54:49;-1.3;80.4
72919;SHT30;61063;55.700;26.994;2022-11-21T12:59:32;-1.3;79.9
72919;SHT30;61063;55.700;26.994;2022-11-21T13:04:53;-1.4;80
72919;SHT30;61063;55.700;26.994;2022-11-21T13:09:35;-1.4;80.1
72919;SHT30;61063;55.700;26.994;2022-11-21T13:14:54;-1.4;79.9
72919;SHT30;61063;55.700;26.994;2022-11-21T13:19:54;-1.4;79.8
72919;SHT30;61063;55.700;26.994;2022-11-21T13:24:59;-1.5;79.5
72919;SHT30;61063;55.700;26.994;2022-11-21T13:30:08;-1.5;80.2
72919;SHT30;61063;55.700;26.994;2022-11-21T13:34:43;-1.4;80.3
72919;SHT30;61063;55.700;26.994;2022-11-21T13:39:56;-1.4;80.4
72919;SHT30;61063;55.700;26.994;2022-11-21T13:44:45;-1.5;80.3
72919;SHT30;61063;55.700;26.994;2022-11-21T13:49:33;-1.6;80.1
72919;SHT30;61063;55.700;26.994;2022-11-21T13:55:00;-1.7;80.8
72919;SHT30;61063;55.700;26.994;2022-11-21T13:59:49;-1.6;80.9
72919;SHT30;61063;55.700;26.994;2022-11-21T14:04:48;-1.7;80.4
72919;SHT30;61063;55.700;26.994;2022-11-21T14:09:55;-2;80.7
72919;SHT30;61063;55.700;26.994;2022-11-21T14:14:33;-2;81.2
72919;SHT30;61063;55.700;26.994;2022-11-21T14:19:58;-2;81.9
72919;SHT30;61063;55.700;26.994;2022-11-21T14:24:47;-1.9;81.7
72919;SHT30;61063;55.700;26.994;2022-11-21T14:29:36;-1.9;81.8
72919;SHT30;61063;55.700;26.994;2022-11-21T14:34:11;-1.9;81.9
72919;SHT30;61063;55.700;26.994;2022-11-21T14:39:43;-1.9;82
72919;SHT30;61063;55.700;26.994;2022-11-21T14:44:35;-1.9;81.6
72919;SHT30;61063;55.700;26.994;2022-11-21T14:49:55;-1.9;82
72919;SHT30;61063;55.700;26.994;2022-11-21T14:54:55;-1.9;81.6
72919;SHT30;61063;55.700;26.994;2022-11-21T14:59:55;-2;81.9
72919;SHT30;61063;55.700;26.994;2022-11-21T15:04:43;-1.9;82.3
72919;SHT30;61063;55.700;26.994;2022-11-21T15:09:23;-1.9;81.9
72919;SHT30;61063;55.700;26.994;2022-11-21T15:14:45;-1.9;82.4
72919;SHT30;61063;55.700;26.994;2022-11-21T15:19:37;-1.9;82.9
72919;SHT30;61063;55.700;26.994;2022-11-21T15:25:04;-1.8;83
72919;SHT30;61063;55.700;26.994;2022-11-21T15:29:29;-1.8;82.8
72919;SHT30;61063;55.700;26.994;2022-11-21T15:34:57;-1.7;83.1
72919;SHT30;61063;55.700;26.994;2022-11-21T15:39:35;-1.7;83.2
72919;SHT30;61063;55.700;26.994;2022-11-21T15:44:55;-1.7;83.5
72919;SHT30;61063;55.700;26.994;2022-11-21T15:49:12;-1.7;83.1
72919;SHT30;61063;55.700;26.994;2022-11-21T15:54:45;-1.8;83.3
72919;SHT30;61063;55.700;26.994;2022-11-21T15:59:19;-1.7;83.6
72919;SHT30;61063;55.700;26.994;2022-11-21T16:04:25;-1.7;83.6
72919;SHT30;61063;55.700;26.994;2022-11-21T16:09:23;-1.7;83.5
72919;SHT30;61063;55.700;26.994;2022-11-21T16:14:55;-1.8;83.7
72919;SHT30;61063;55.700;26.994;2022-11-21T16:19:55;-2;83.7
72919;SHT30;61063;55.700;26.994;2022-11-21T16:24:33;-2.1;83.8
72919;SHT30;61063;55.700;26.994;2022-11-21T16:29:47;-2.1;84
72919;SHT30;61063;55.700;26.994;2022-11-21T16:34:11;-2.1;83.9
72919;SHT30;61063;55.700;26.994;2022-11-21T16:39:39;-2.1;83.9
72919;SHT30;61063;55.700;26.994;2022-11-21T16:44:43;-2.1;83.5
72919;SHT30;61063;55.700;26.994;2022-11-21T16:49:58;-2.1;83.5
72919;SHT30;61063;55.700;26.994;2022-11-21T16:54:33;-2.1;83.6
72919;SHT30;61063;55.700;26.994;2022-11-21T16:59:25;-2.1;83.7
72919;SHT30;61063;55.700;26.994;2022-11-21T17:04:21;-2.1;83.2
72919;SHT30;61063;55.700;26.994;2022-11-21T17:09:43;-2.1;83.1
72919;SHT30;61063;55.700;26.994;2022-11-21T17:14:31;-2.1;83
72919;SHT30;61063;55.700;26.994;2022-11-21T17:19:45;-2.1;83.1
72919;SHT30;61063;55.700;26.994;2022-11-21T17:24:25;-2.1;83.3
72919;SHT30;61063;55.700;26.994;2022-11-21T17:29:57;-2.1;83.2
72919;SHT30;61063;55.700;26.994;2022-11-21T17:34:57;-2.2;83.5
72919;SHT30;61063;55.700;26.994;2022-11-21T17:39:31;-2.1;84.1
72919;SHT30;61063;55.700;26.994;2022-11-21T17:44:47;-2.1;84
72919;SHT30;61063;55.700;26.994;2022-11-21T17:49:21;-2.1;84.2
72919;SHT30;61063;55.700;26.994;2022-11-21T17:54:57;-2;84.2
72919;SHT30;61063;55.700;26.994;2022-11-21T17:59:33;-2.1;84
72919;SHT30;61063;55.700;26.994;2022-11-21T18:04:57;-2.1;84.3
72919;SHT30;61063;55.700;26.994;2022-11-21T18:09:11;-2.1;84.7
72919;SHT30;61063;55.700;26.994;2022-11-21T18:14:11;-2.1;84.8
72919;SHT30;61063;55.700;26.994;2022-11-21T18:19:25;-2.1;84.8
72919;SHT30;61063;55.700;26.994;2022-11-21T18:24:45;-2.1;85.1
72919;SHT30;61063;55.700;26.994;2022-11-21T18:29:11;-2;85.1
72919;SHT30;61063;55.700;26.994;2022-11-21T18:34:41;-2;85
72919;SHT30;61063;55.700;26.994;2022-11-21T18:39:29;-2.1;84.8
72919;SHT30;61063;55.700;26.994;2022-11-21T18:44:57;-2.1;84.7
72919;SHT30;61063;55.700;26.994;2022-11-21T18:49:57;-2;84.4
72919;SHT30;61063;55.700;26.994;2022-11-21T18:54:43;-2.1;84.3
72919;SHT30;61063;55.700;26.994;2022-11-21T18:59:57;-2;84.4
72919;SHT30;61063;55.700;26.994;2022-11-21T19:04:35;-2.1;84.2
72919;SHT30;61063;55.700;26.994;2022-11-21T19:09:57;-2.1;84.2
72919;SHT30;61063;55.700;26.994;2022-11-21T19:14:31;-2.1;84.6
72919;SHT30;61063;55.700;26.994;2022-11-21T19:19:57;-2;84.6
72919;SHT30;61063;55.700;26.994;2022-11-21T19:24:33;-2.1;84.3
72919;SHT30;61063;55.700;26.994;2022-11-21T19:29:31;-2.1;84.5
72919;SHT30;61063;55.700;26.994;2022-11-21T19:34:45;-2.1;84.6
72919;SHT30;61063;55.700;26.994;2022-11-21T19:39:21;-2.1;84.6
72919;SHT30;61063;55.700;26.994;2022-11-21T19:44:55;-2.1;84.5
72919;SHT30;61063;55.700;26.994;2022-11-21T19:49:57;-2.1;84.4
72919;SHT30;61063;55.700;26.994;2022-11-21T19:54:57;-2.1;84.5
72919;SHT30;61063;55.700;26.994;2022-11-21T19:59:43;-2;84.5
72919;SHT30;61063;55.700;26.994;2022-11-21T20:04:53;-2;84.3
72919;SHT30;61063;55.700;26.994;2022-11-21T20:09:43;-1.9;84.1
72919;SHT30;61063;55.700;26.994;2022-11-21T20:14:31;-2;84.3
72919;SHT30;61063;55.700;26.994;2022-11-21T20:19:55;-2;84.5
72919;SHT30;61063;55.700;26.994;2022-11-21T20:24:33;-1.9;84.6
72919;SHT30;61063;55.700;26.994;2022-11-21T20:29:41;-1.8;84.6
72919;SHT30;61063;55.700;26.994;2022-11-21T20:34:51;-1.8;84.4
72919;SHT30;61063;55.700;26.994;2022-11-21T20:39:51;-1.7;84.5
72919;SHT30;61063;55.700;26.994;2022-11-21T20:44:19;-1.6;84.7
72919;SHT30;61063;55.700;26.994;2022-11-21T20:49:41;-1.6;84.4
72919;SHT30;61063;55.700;26.994;2022-11-21T20:54:33;-1.6;84.5
72919;SHT30;61063;55.700;26.994;2022-11-21T20:59:53;-1.7;84.1
72919;SHT30;61063;55.700;26.994;2022-11-21T21:04:55;-1.7;84.2
72919;SHT30;61063;55.700;26.994;2022-11-21T21:09:55;-1.7;84.3
72919;SHT30;61063;55.700;26.994;2022-11-21T21:14:43;-1.7;84.3
72919;SHT30;61063;55.700;26.994;2022-11-21T21:19:45;-1.8;84.4
72919;SHT30;61063;55.700;26.994;2022-11-21T21:24:43;-1.8;84.3
72919;SHT30;61063;55.700;26.994;2022-11-21T21:29:43;-1.7;84.5
72919;SHT30;61063;55.700;26.994;2022-11-21T21:34:31;-1.7;84.6
72919;SHT30;61063;55.700;26.994;2022-11-21T21:39:35;-1.6;84.5
72919;SHT30;61063;55.700;26.994;2022-11-21T21:44:45;-1.6;84.7
72919;SHT30;61063;55.700;26.994;2022-11-21T21:49:31;-1.6;84.8
72919;SHT30;61063;55.700;26.994;2022-11-21T21:54:51;-1.7;84.8
72919;SHT30;61063;55.700;26.994;2022-11-21T21:59:51;-1.7;84.7
72919;SHT30;61063;55.700;26.994;2022-11-21T22:04:41;-1.6;85
72919;SHT30;61063;55.700;26.994;2022-11-21T22:09:31;-1.6;85.7
72919;SHT30;61063;55.700;26.994;2022-11-21T22:14:47;-1.6;86
72919;SHT30;61063;55.700;26.994;2022-11-21T22:19:47;-1.6;86.2
72919;SHT30;61063;55.700;26.994;2022-11-21T22:24:51;-1.6;86.3
72919;SHT30;61063;55.700;26.994;2022-11-21T22:29:41;-1.6;86.1
72919;SHT30;61063;55.700;26.994;2022-11-21T22:34:43;-1.5;85.9
72919;SHT30;61063;55.700;26.994;2022-11-21T22:39:41;-1.5;86.3
72919;SHT30;61063;55.700;26.994;2022-11-21T22:44:21;-1.5;86.2
72919;SHT30;61063;55.700;26.994;2022-11-21T22:49:53;-1.4;86.4
72919;SHT30;61063;55.700;26.994;2022-11-21T22:54:29;-1.4;86.1
72919;SHT30;61063;55.700;26.994;2022-11-21T22:59:37;-1.5;85.9
72919;SHT30;61063;55.700;26.994;2022-11-21T23:04:25;-1.5;85.7
72919;SHT30;61063;55.700;26.994;2022-11-21T23:09:53;-1.5;86.1
72919;SHT30;61063;55.700;26.994;2022-11-21T23:14:31;-1.4;86.3
72919;SHT30;61063;55.700;26.994;2022-11-21T23:19:41;-1.4;86.4
72919;SHT30;61063;55.700;26.994;2022-11-21T23:24:29;-1.5;86.1
72919;SHT30;61063;55.700;26.994;2022-11-21T23:29:43;-1.5;86.2
72919;SHT30;61063;55.700;26.994;2022-11-21T23:34:49;-1.6;86.1
72919;SHT30;61063;55.700;26.994;2022-11-21T23:39:21;-1.5;85.9
72919;SHT30;61063;55.700;26.994;2022-11-21T23:44:19;-1.5;86.4
72919;SHT30;61063;55.700;26.994;2022-11-21T23:49:43;-1.4;86.3
72919;SHT30;61063;55.700;26.994;2022-11-21T23:54:39;-1.4;86.3
72919;SHT30;61063;55.700;26.994;2022-11-21T23:59:43;-1.3;86.4
